Time;durP1;ratioP1;P1;durP2;ratioP2;P2;SDS_P1;SDS_P2;PMS_P1;PMS_P2;Temp;Humidity;BMP_temperature;BMP_pressure;BME280_temperature;BME280_humidity;BME280_pressure;Samples;Min_cycle;Max_cycle;Signal;HPM_P1;HPM_P2
2023/01/14 00:01:28;;;;;;;;;;;;;;;;;;5053357;28;19939;-60
2023/01/14 00:03:53;;;;;;;;;;;;;;;;;;5067924;28;19908;-59
2023/01/14 00:06:18;;;;;;;;;;;;;;;;;;5062020;28;20009;-59
2023/01/14 00:08:44;;;;;;;;;;;;;;;;;;5051832;28;19913;-60
2023/01/14 00:11:09;;;;;;;;;;;;;;;;;;5073424;28;19947;-59
2023/01/14 00:13:34;;;;;;;;;;;;;;;;;;5094991;28;19908;-60
2023/01/14 00:15:59;;;;;;;;;;;;;;;;;;5076989;28;19970;-60
2023/01/14 00:18:24;;;;;;;;;;;;;;;;;;5073130;28;19992;-61
2023/01/14 00:20:49;;;;;;;;;;;;;;;;;;5071161;28;19964;-61
2023/01/14 00:23:14;;;;;;;;;;;;;;;;;;5072347;28;19913;-60
2023/01/14 00:25:40;;;;;;;;;;;;;;;;;;5073376;28;20361;-61
2023/01/14 00:28:05;;;;;;;;;;;;;;;;;;5074004;28;19916;-61
2023/01/14 00:30:30;;;;;;;;;;;;;;;;;;5085431;28;19940;-61
2023/01/14 00:32:56;;;;;;;;;;;;;;;;;;5071492;28;19913;-61
2023/01/14 00:35:21;;;;;;;;;;;;;;;;;;5073742;28;20435;-61
2023/01/14 00:37:46;;;;;;;;;;;;;;;;;;5070373;28;20011;-60
2023/01/14 00:40:11;;;;;;;;;;;;;;;;;;5073865;28;20047;-60
2023/01/14 00:42:36;;;;;;;;;;;;;;;;;;5064552;28;19912;-60
2023/01/14 00:45:01;;;;;;;;;;;;;;;;;;5067606;28;20008;-60
2023/01/14 00:47:26;;;;;;;;;;;;;;;;;;5075713;28;19919;-60
2023/01/14 00:49:51;;;;;;;;;;;;;;;;;;5094203;28;19908;-60
2023/01/14 00:52:17;;;;;;;;;;;;;;;;;;5073404;28;20292;-61
2023/01/14 00:54:42;;;;;;;;;;;;;;;;;;5073706;28;20018;-60
2023/01/14 00:57:07;;;;;;;;;;;;;;;;;;5072002;28;19912;-59
2023/01/14 00:59:32;;;;;;;;;;;;;;;;;;5073858;28;20284;-59
2023/01/14 01:01:57;;;;;;;;;;;;;;;;;;5070728;28;20352;-62
2023/01/14 01:04:22;;;;;;;;;;;;;;;;;;5072861;28;19912;-60
2023/01/14 01:06:48;;;;;;;;;;;;;;;;;;5069522;28;19912;-61
2023/01/14 01:09:13;;;;;;;;;;;;;;;;;;5073489;28;19908;-61
2023/01/14 01:11:38;;;;;;;;;;;;;;;;;;5054996;28;19995;-59
2023/01/14 01:14:03;;;;;;;;;;;;;;;;;;5070998;28;20273;-61
2023/01/14 01:16:28;;;;;;;;;;;;;;;;;;5072746;28;20330;-60
2023/01/14 01:18:53;;;;;;;;;;;;;;;;;;5091774;28;20354;-60
2023/01/14 01:21:19;;;;;;;;;;;;;;;;;;5093675;28;20288;-60
2023/01/14 01:23:44;;;;;;;;;;;;;;;;;;5070367;28;19958;-60
2023/01/14 01:26:09;;;;;;;;;;;;;;;;;;5073070;28;19999;-60
2023/01/14 01:28:34;;;;;;;;;;;;;;;;;;5072720;28;19976;-60
2023/01/14 01:30:59;;;;;;;;;;;;;;;;;;5072893;28;19916;-61
2023/01/14 01:33:24;;;;;;;;;;;;;;;;;;5069678;28;19928;-61
2023/01/14 01:35:50;;;;;;;;;;;;;;;;;;5071038;28;20365;-61
2023/01/14 01:38:15;;;;;;;;;;;;;;;;;;5076915;28;20501;-61
2023/01/14 01:40:40;;;;;;;;;;;;;;;;;;5077891;28;19937;-61
2023/01/14 01:43:05;;;;;;;;;;;;;;;;;;5066703;28;19923;-60
2023/01/14 01:45:31;;;;;;;;;;;;;;;;;;5068395;28;20364;-61
2023/01/14 01:47:56;;;;;;;;;;;;;;;;;;5072151;28;20355;-59
2023/01/14 01:50:21;;;;;;;;;;;;;;;;;;5054834;28;20284;-60
2023/01/14 01:52:46;;;;;;;;;;;;;;;;;;5071465;28;19962;-60
2023/01/14 01:55:12;;;;;;;;;;;;;;;;;;5069590;28;19982;-59
2023/01/14 01:57:37;;;;;;;;;;;;;;;;;;5070553;28;20377;-59
2023/01/14 02:00:02;;;;;;;;;;;;;;;;;;5092144;28;20357;-60
2023/01/14 02:02:27;;;;;;;;;;;;;;;;;;5089440;28;20433;-60
2023/01/14 02:04:52;;;;;;;;;;;;;;;;;;5061552;28;20442;-60
2023/01/14 02:07:17;;;;;;;;;;;;;;;;;;5061084;28;19967;-60
2023/01/14 02:09:43;;;;;;;;;;;;;;;;;;5054196;28;20000;-59
2023/01/14 02:12:08;;;;;;;;;;;;;;;;;;5068756;28;19912;-60
2023/01/14 02:14:33;;;;;;;;;;;;;;;;;;5071664;28;19920;-60
2023/01/14 02:16:58;;;;;;;;;;;;;;;;;;5069880;28;19912;-61
2023/01/14 02:19:23;;;;;;;;;;;;;;;;;;5071567;28;20303;-61
2023/01/14 02:21:48;;;;;;;;;;;;;;;;;;5075031;28;19927;-61
2023/01/14 02:24:13;;;;;;;;;;;;;;;;;;5065246;28;19909;-61
2023/01/14 02:26:39;;;;;;;;;;;;;;;;;;5068995;28;19959;-61
2023/01/14 02:29:04;;;;;;;;;;;;;;;;;;5071889;28;19912;-61
2023/01/14 02:31:29;;;;;;;;;;;;;;;;;;5079595;28;19924;-61
2023/01/14 02:33:54;;;;;;;;;;;;;;;;;;5092877;28;19917;-61
2023/01/14 02:36:19;;;;;;;;;;;;;;;;;;5078972;28;19956;-61
2023/01/14 02:38:44;;;;;;;;;;;;;;;;;;5073549;28;20247;-60
2023/01/14 02:41:09;;;;;;;;;;;;;;;;;;5072313;28;20022;-60
2023/01/14 02:46:18;;;;;;;;;;;;;;;;;;5070336;28;19914;-60
2023/01/14 02:48:43;;;;;;;;;;;;;;;;;;5056681;28;19913;-60
2023/01/14 02:51:09;;;;;;;;;;;;;;;;;;5064846;28;19916;-60
2023/01/14 02:53:34;;;;;;;;;;;;;;;;;;5072042;28;19954;-60
2023/01/14 02:55:59;;;;;;;;;;;;;;;;;;5065322;28;20384;-60
2023/01/14 02:58:24;;;;;;;;;;;;;;;;;;5073128;28;19913;-59
2023/01/14 03:00:49;;;;;;;;;;;;;;;;;;5080442;28;19958;-60
2023/01/14 03:03:14;;;;;;;;;;;;;;;;;;5072196;28;19931;-60
2023/01/14 03:05:39;;;;;;;;;;;;;;;;;;5070392;28;19916;-60
2023/01/14 03:08:04;;;;;;;;;;;;;;;;;;5069116;28;19980;-60
2023/01/14 03:10:30;;;;;;;;;;;;;;;;;;5069704;28;20284;-60
2023/01/14 03:12:55;;;;;;;;;;;;;;;;;;5071685;28;19997;-60
2023/01/14 03:15:20;;;;;;;;;;;;;;;;;;5071647;28;19920;-60
2023/01/14 03:17:45;;;;;;;;;;;;;;;;;;5053052;28;20428;-59
2023/01/14 03:20:10;;;;;;;;;;;;;;;;;;5074947;28;19919;-60
2023/01/14 03:22:35;;;;;;;;;;;;;;;;;;5076814;28;19943;-60
2023/01/14 03:25:00;;;;;;;;;;;;;;;;;;5075056;28;19973;-61
2023/01/14 03:27:25;;;;;;;;;;;;;;;;;;5075187;28;19908;-61
2023/01/14 03:29:51;;;;;;;;;;;;;;;;;;5071163;28;20019;-60
2023/01/14 03:32:16;;;;;;;;;;;;;;;;;;5074566;28;19919;-60
2023/01/14 03:34:41;;;;;;;;;;;;;;;;;;5075183;28;19909;-60
2023/01/14 03:37:06;;;;;;;;;;;;;;;;;;5072800;28;19975;-60
2023/01/14 03:39:31;;;;;;;;;;;;;;;;;;5074363;28;20106;-60
2023/01/14 03:44:40;;;;;;;;;;;;;;;;;;5081135;28;19919;-61
2023/01/14 03:47:05;;;;;;;;;;;;;;;;;;5069446;28;19912;-60
2023/01/14 03:49:30;;;;;;;;;;;;;;;;;;5079405;28;19916;-60
2023/01/14 03:51:56;;;;;;;;;;;;;;;;;;5076199;28;19912;-59
2023/01/14 03:54:21;;;;;;;;;;;;;;;;;;5074475;28;19912;-59
2023/01/14 03:56:47;;;;;;;;;;;;;;;;;;5074559;28;19908;-59
2023/01/14 03:59:12;;;;;;;;;;;;;;;;;;5074435;28;19916;-59
2023/01/14 04:01:38;;;;;;;;;;;;;;;;;;5072786;28;19923;-60
2023/01/14 04:04:03;;;;;;;;;;;;;;;;;;5065679;28;19939;-59
2023/01/14 04:06:28;;;;;;;;;;;;;;;;;;5073359;28;20279;-60
2023/01/14 04:08:53;;;;;;;;;;;;;;;;;;5080748;28;19912;-60
2023/01/14 04:11:18;;;;;;;;;;;;;;;;;;5081613;28;19908;-60
2023/01/14 04:16:27;;;;;;;;;;;;;;;;;;5074631;28;19951;-60
2023/01/14 04:18:52;;;;;;;;;;;;;;;;;;5070975;28;19952;-60
2023/01/14 04:21:20;;;;;;;;;;;;;;;;;;5074566;28;20225;-60
2023/01/14 04:23:45;;;;;;;;;;;;;;;;;;5067751;28;20346;-60
2023/01/14 04:26:10;;;;;;;;;;;;;;;;;;5074234;28;19916;-60
2023/01/14 04:28:35;;;;;;;;;;;;;;;;;;5069631;28;19912;-60
2023/01/14 04:31:00;;;;;;;;;;;;;;;;;;5072614;28;19920;-60
2023/01/14 04:33:25;;;;;;;;;;;;;;;;;;5070469;28;19969;-60
2023/01/14 04:35:50;;;;;;;;;;;;;;;;;;5088202;28;20342;-60
2023/01/14 04:38:15;;;;;;;;;;;;;;;;;;5073329;28;20356;-59
2023/01/14 04:40:41;;;;;;;;;;;;;;;;;;5080705;28;19920;-60
2023/01/14 04:43:06;;;;;;;;;;;;;;;;;;5075974;28;19974;-60
2023/01/14 04:45:31;;;;;;;;;;;;;;;;;;5070309;28;20365;-60
2023/01/14 04:47:56;;;;;;;;;;;;;;;;;;5064774;28;19913;-60
2023/01/14 04:50:30;;;;;;;;;;;;;;;;;;5072374;28;19912;-60
2023/01/14 04:52:55;;;;;;;;;;;;;;;;;;5099356;28;19916;-60
2023/01/14 04:55:21;;;;;;;;;;;;;;;;;;5071830;28;19919;-60
2023/01/14 04:57:46;;;;;;;;;;;;;;;;;;5055489;28;19916;-60
2023/01/14 05:00:11;;;;;;;;;;;;;;;;;;5072511;28;19912;-60
2023/01/14 05:02:36;;;;;;;;;;;;;;;;;;5072301;28;20584;-60
2023/01/14 05:05:01;;;;;;;;;;;;;;;;;;5069604;28;19966;-60
2023/01/14 05:07:26;;;;;;;;;;;;;;;;;;5071773;28;19966;-60
2023/01/14 05:09:51;;;;;;;;;;;;;;;;;;5087438;28;20289;-59
2023/01/14 05:12:16;;;;;;;;;;;;;;;;;;5085976;28;19908;-60
2023/01/14 05:14:42;;;;;;;;;;;;;;;;;;5076715;28;19913;-60
2023/01/14 05:17:07;;;;;;;;;;;;;;;;;;5059519;28;19967;-60
2023/01/14 05:19:32;;;;;;;;;;;;;;;;;;5073921;28;19912;-59
2023/01/14 05:21:57;;;;;;;;;;;;;;;;;;5073633;28;20320;-59
2023/01/14 05:24:22;;;;;;;;;;;;;;;;;;5071894;28;20414;-60
2023/01/14 05:26:48;;;;;;;;;;;;;;;;;;5069575;28;20272;-60
2023/01/14 05:29:13;;;;;;;;;;;;;;;;;;5072734;28;19912;-59
2023/01/14 05:31:38;;;;;;;;;;;;;;;;;;5073136;28;19955;-60
2023/01/14 05:34:03;;;;;;;;;;;;;;;;;;5071650;28;20072;-59
2023/01/14 05:36:28;;;;;;;;;;;;;;;;;;5072100;28;19920;-59
2023/01/14 05:38:53;;;;;;;;;;;;;;;;;;5079100;28;20046;-60
2023/01/14 05:41:18;;;;;;;;;;;;;;;;;;5083466;28;19920;-60
2023/01/14 05:46:27;;;;;;;;;;;;;;;;;;5071701;28;19915;-60
2023/01/14 05:48:52;;;;;;;;;;;;;;;;;;5054494;28;20357;-60
2023/01/14 05:51:19;;;;;;;;;;;;;;;;;;5070070;28;20305;-60
2023/01/14 05:53:44;;;;;;;;;;;;;;;;;;5063088;28;19920;-60
2023/01/14 05:56:10;;;;;;;;;;;;;;;;;;5069306;28;20399;-60
2023/01/14 05:58:35;;;;;;;;;;;;;;;;;;5082473;28;19912;-59
2023/01/14 06:06:28;;;;;;;;;;;;;;;;;;5069695;28;20352;-60
2023/01/14 06:08:53;;;;;;;;;;;;;;;;;;5067759;28;20007;-60
2023/01/14 06:11:19;;;;;;;;;;;;;;;;;;5071598;28;19908;-60
2023/01/14 06:13:45;;;;;;;;;;;;;;;;;;5074789;28;19970;-60
2023/01/14 06:16:10;;;;;;;;;;;;;;;;;;5070274;28;20339;-60
2023/01/14 06:18:41;;;;;;;;;;;;;;;;;;5068290;28;19912;-61
2023/01/14 06:21:07;;;;;;;;;;;;;;;;;;5072877;28;20326;-60
2023/01/14 06:23:32;;;;;;;;;;;;;;;;;;5075200;28;19912;-60
2023/01/14 06:25:57;;;;;;;;;;;;;;;;;;5068976;28;19916;-61
2023/01/14 06:28:22;;;;;;;;;;;;;;;;;;5069968;28;19913;-61
2023/01/14 06:30:48;;;;;;;;;;;;;;;;;;5057440;28;19913;-61
2023/01/14 06:33:13;;;;;;;;;;;;;;;;;;5056505;28;19923;-61
2023/01/14 06:35:38;;;;;;;;;;;;;;;;;;5055723;28;19917;-62
2023/01/14 06:38:03;;;;;;;;;;;;;;;;;;5069939;28;19913;-63
2023/01/14 06:40:29;;;;;;;;;;;;;;;;;;5068705;28;19920;-64
2023/01/14 06:42:54;;;;;;;;;;;;;;;;;;5067913;28;19920;-64
2023/01/14 06:45:19;;;;;;;;;;;;;;;;;;5068601;28;19962;-64
2023/01/14 06:47:44;;;;;;;;;;;;;;;;;;5077364;28;19913;-64
2023/01/14 06:50:09;;;;;;;;;;;;;;;;;;5066302;28;20292;-65
2023/01/14 06:52:34;;;;;;;;;;;;;;;;;;5064196;28;19959;-64
2023/01/14 06:54:59;;;;;;;;;;;;;;;;;;5075941;28;20409;-64
2023/01/14 06:57:25;;;;;;;;;;;;;;;;;;5065818;28;20026;-64
2023/01/14 06:59:50;;;;;;;;;;;;;;;;;;5059253;28;19913;-64
2023/01/14 07:02:15;;;;;;;;;;;;;;;;;;5059506;28;20006;-64
2023/01/14 07:04:42;;;;;;;;;;;;;;;;;;5078816;28;20376;-64
2023/01/14 07:07:07;;;;;;;;;;;;;;;;;;5057735;28;19958;-64
2023/01/14 07:09:32;;;;;;;;;;;;;;;;;;5074886;28;19920;-64
2023/01/14 07:11:57;;;;;;;;;;;;;;;;;;5072497;28;20399;-64
2023/01/14 07:14:22;;;;;;;;;;;;;;;;;;5072763;28;19919;-64
2023/01/14 07:16:47;;;;;;;;;;;;;;;;;;5062863;28;19999;-64
2023/01/14 07:19:13;;;;;;;;;;;;;;;;;;5070843;28;20280;-64
2023/01/14 07:21:38;;;;;;;;;;;;;;;;;;5078701;28;20327;-64
2023/01/14 07:24:03;;;;;;;;;;;;;;;;;;5073408;28;19920;-64
2023/01/14 07:26:28;;;;;;;;;;;;;;;;;;5080309;28;19913;-64
2023/01/14 07:28:54;;;;;;;;;;;;;;;;;;5075333;28;19929;-64
2023/01/14 07:31:19;;;;;;;;;;;;;;;;;;5073168;28;19957;-64
2023/01/14 07:33:44;;;;;;;;;;;;;;;;;;5072083;28;19917;-64
2023/01/14 07:36:09;;;;;;;;;;;;;;;;;;5054843;28;19913;-64
2023/01/14 07:38:35;;;;;;;;;;;;;;;;;;5072548;28;19913;-64
2023/01/14 07:41:00;;;;;;;;;;;;;;;;;;5075343;28;19913;-64
2023/01/14 07:43:25;;;;;;;;;;;;;;;;;;5069871;28;19924;-65
2023/01/14 07:45:50;;;;;;;;;;;;;;;;;;5073675;28;20049;-65
2023/01/14 07:48:15;;;;;;;;;;;;;;;;;;5082256;28;19961;-65
2023/01/14 07:50:41;;;;;;;;;;;;;;;;;;5090623;28;19915;-64
2023/01/14 07:53:06;;;;;;;;;;;;;;;;;;5080818;28;19912;-65
2023/01/14 07:55:31;;;;;;;;;;;;;;;;;;5072754;28;21512;-65
2023/01/14 07:57:56;;;;;;;;;;;;;;;;;;5070501;28;20329;-64
2023/01/14 08:00:21;;;;;;;;;;;;;;;;;;5065558;28;19916;-64
2023/01/14 08:02:46;;;;;;;;;;;;;;;;;;5080226;28;20010;-65
2023/01/14 08:05:11;;;;;;;;;;;;;;;;;;5089179;28;19935;-64
2023/01/14 08:07:37;;;;;;;;;;;;;;;;;;5059259;28;19920;-64
2023/01/14 08:10:02;;;;;;;;;;;;;;;;;;5041206;28;19927;-64
2023/01/14 08:12:32;;;;;;;;;;;;;;;;;;5055572;28;19970;-64
2023/01/14 08:14:57;;;;;;;;;;;;;;;;;;5038208;28;20014;-64
2023/01/14 08:17:22;;;;;;;;;;;;;;;;;;5064311;28;19995;-64
2023/01/14 08:19:47;;;;;;;;;;;;;;;;;;5068111;28;20379;-64
2023/01/14 08:22:12;;;;;;;;;;;;;;;;;;5079295;28;19916;-64
2023/01/14 08:24:37;;;;;;;;;;;;;;;;;;5075504;28;19919;-64
2023/01/14 08:27:02;;;;;;;;;;;;;;;;;;5071040;28;19912;-64
2023/01/14 08:29:28;;;;;;;;;;;;;;;;;;5069166;28;19980;-64
2023/01/14 08:31:54;;;;;;;;;;;;;;;;;;5067752;28;19965;-65
2023/01/14 08:34:19;;;;;;;;;;;;;;;;;;5057778;28;20011;-64
2023/01/14 08:36:44;;;;;;;;;;;;;;;;;;5064179;28;20054;-64
2023/01/14 08:39:10;;;;;;;;;;;;;;;;;;5052146;28;20000;-64
2023/01/14 08:41:35;;;;;;;;;;;;;;;;;;5070417;28;19930;-63
2023/01/14 08:44:00;;;;;;;;;;;;;;;;;;5067425;28;20407;-63
2023/01/14 08:46:25;;;;;;;;;;;;;;;;;;5070298;28;20269;-63
2023/01/14 08:48:50;;;;;;;;;;;;;;;;;;5077873;28;19956;-64
2023/01/14 08:51:15;;;;;;;;;;;;;;;;;;5069500;28;19919;-63
2023/01/14 08:53:40;;;;;;;;;;;;;;;;;;5073355;28;20016;-63
2023/01/14 08:56:06;;;;;;;;;;;;;;;;;;5071390;28;19912;-63
2023/01/14 08:58:31;;;;;;;;;;;;;;;;;;5067783;28;19920;-63
2023/01/14 09:00:56;;;;;;;;;;;;;;;;;;5070340;28;20258;-63
2023/01/14 09:03:21;;;;;;;;;;;;;;;;;;5073896;28;20384;-63
2023/01/14 09:05:46;;;;;;;;;;;;;;;;;;5065800;28;19921;-63
2023/01/14 09:19:07;;;;;;;;;;;;;;;;;;5067224;28;19931;-63
2023/01/14 09:21:32;;;;;;;;;;;;;;;;;;5071019;28;19916;-63
2023/01/14 09:23:57;;;;;;;;;;;;;;;;;;5078431;28;20003;-63
2023/01/14 09:26:22;;;;;;;;;;;;;;;;;;5071803;28;19948;-63
2023/01/14 09:28:48;;;;;;;;;;;;;;;;;;5070366;28;19916;-64
2023/01/14 09:31:13;;;;;;;;;;;;;;;;;;5070428;28;20280;-64
2023/01/14 09:33:38;;;;;;;;;;;;;;;;;;5071818;28;20425;-64
2023/01/14 09:36:03;;;;;;;;;;;;;;;;;;5069435;28;20212;-64
2023/01/14 09:38:28;;;;;;;;;;;;;;;;;;5071274;28;20329;-64
2023/01/14 09:40:53;;;;;;;;;;;;;;;;;;5066065;28;20559;-64
2023/01/14 09:43:18;;;;;;;;;;;;;;;;;;5064295;28;19964;-64
2023/01/14 09:45:44;;;;;;;;;;;;;;;;;;5035404;28;20358;-64
2023/01/14 09:48:09;;;;;;;;;;;;;;;;;;5047419;28;20353;-64
2023/01/14 09:50:34;;;;;;;;;;;;;;;;;;5069779;28;20287;-63
2023/01/14 09:53:01;;;;;;;;;;;;;;;;;;5048581;28;19943;-64
2023/01/14 09:55:26;;;;;;;;;;;;;;;;;;5063310;28;19916;-64
2023/01/14 09:57:51;;;;;;;;;;;;;;;;;;5064798;28;19967;-64
2023/01/14 10:00:16;;;;;;;;;;;;;;;;;;5065593;28;20305;-64
2023/01/14 10:02:41;;;;;;;;;;;;;;;;;;5045236;28;20284;-64
2023/01/14 10:05:06;;;;;;;;;;;;;;;;;;5047273;28;19923;-64
2023/01/14 10:07:31;;;;;;;;;;;;;;;;;;5044433;28;19916;-64
2023/01/14 10:09:57;;;;;;;;;;;;;;;;;;5071757;28;19959;-64
2023/01/14 10:12:22;;;;;;;;;;;;;;;;;;5064886;28;19919;-64
2023/01/14 10:14:47;;;;;;;;;;;;;;;;;;5066723;28;19912;-64
2023/01/14 10:17:12;;;;;;;;;;;;;;;;;;5070263;28;20424;-65
2023/01/14 10:19:37;;;;;;;;;;;;;;;;;;5057377;28;19947;-64
2023/01/14 10:22:03;;;;;;;;;;;;;;;;;;5048227;28;19916;-64
2023/01/14 10:24:28;;;;;;;;;;;;;;;;;;5069461;28;19943;-64
2023/01/14 10:26:53;;;;;;;;;;;;;;;;;;5068769;28;20136;-64
2023/01/14 10:29:19;;;;;;;;;;;;;;;;;;5069123;28;19921;-64
2023/01/14 10:31:44;;;;;;;;;;;;;;;;;;5051266;28;19955;-64
2023/01/14 10:34:09;;;;;;;;;;;;;;;;;;5052164;28;19912;-64
2023/01/14 10:36:34;;;;;;;;;;;;;;;;;;5063151;28;19913;-64
2023/01/14 10:38:59;;;;;;;;;;;;;;;;;;5069481;28;19925;-64
2023/01/14 10:44:08;;;;;;;;;;;;;;;;;;5068694;28;19951;-64
2023/01/14 10:46:33;;;;;;;;;;;;;;;;;;5072829;28;20376;-64
2023/01/14 10:48:58;;;;;;;;;;;;;;;;;;5068832;28;19920;-64
2023/01/14 10:51:23;;;;;;;;;;;;;;;;;;5076736;28;19912;-64
2023/01/14 10:53:49;;;;;;;;;;;;;;;;;;5082967;28;19912;-64
2023/01/14 10:56:14;;;;;;;;;;;;;;;;;;5069262;28;19957;-64
2023/01/14 10:58:39;;;;;;;;;;;;;;;;;;5072210;28;20149;-64
2023/01/14 11:01:04;;;;;;;;;;;;;;;;;;5067482;28;19916;-63
2023/01/14 11:03:29;;;;;;;;;;;;;;;;;;5069365;28;20015;-64
2023/01/14 11:05:55;;;;;;;;;;;;;;;;;;5062308;28;20014;-63
2023/01/14 11:08:20;;;;;;;;;;;;;;;;;;5072452;28;19943;-64
2023/01/14 11:10:45;;;;;;;;;;;;;;;;;;5068559;28;19916;-64
2023/01/14 11:13:10;;;;;;;;;;;;;;;;;;5055175;28;20395;-64
2023/01/14 11:15:35;;;;;;;;;;;;;;;;;;5037951;28;19928;-64
2023/01/14 11:18:00;;;;;;;;;;;;;;;;;;5031820;28;19967;-64
2023/01/14 11:20:27;;;;;;;;;;;;;;;;;;5065503;28;19912;-64
2023/01/14 11:22:52;;;;;;;;;;;;;;;;;;5063113;28;19912;-64
2023/01/14 11:25:17;;;;;;;;;;;;;;;;;;5062959;28;19913;-64
2023/01/14 11:27:42;;;;;;;;;;;;;;;;;;5049624;28;20095;-64
2023/01/14 11:30:12;;;;;;;;;;;;;;;;;;5034898;28;19919;-67
2023/01/14 11:32:37;;;;;;;;;;;;;;;;;;5060181;28;20391;-64
2023/01/14 11:35:02;;;;;;;;;;;;;;;;;;5069386;28;19912;-63
2023/01/14 11:37:27;;;;;;;;;;;;;;;;;;5062569;28;19927;-64
2023/01/14 11:39:53;;;;;;;;;;;;;;;;;;5049235;28;19956;-64
2023/01/14 11:42:18;;;;;;;;;;;;;;;;;;5039734;28;19925;-64
2023/01/14 11:44:43;;;;;;;;;;;;;;;;;;5040439;28;19982;-64
2023/01/14 11:47:08;;;;;;;;;;;;;;;;;;5043151;28;19912;-64
2023/01/14 11:49:33;;;;;;;;;;;;;;;;;;5040367;28;19924;-64
2023/01/14 11:51:58;;;;;;;;;;;;;;;;;;5042534;28;19925;-64
2023/01/14 11:54:23;;;;;;;;;;;;;;;;;;5042815;28;20371;-64
2023/01/14 11:56:49;;;;;;;;;;;;;;;;;;5040253;28;19925;-63
2023/01/14 11:59:14;;;;;;;;;;;;;;;;;;5044444;28;19944;-63
2023/01/14 12:01:39;;;;;;;;;;;;;;;;;;5044330;28;19979;-63
2023/01/14 12:04:05;;;;;;;;;;;;;;;;;;5041330;28;19971;-63
2023/01/14 12:06:30;;;;;;;;;;;;;;;;;;5042743;28;19913;-62
2023/01/14 12:08:55;;;;;;;;;;;;;;;;;;5038381;28;20012;-63
2023/01/14 12:11:20;;;;;;;;;;;;;;;;;;5045777;28;19940;-63
2023/01/14 12:19:13;;;;;;;;;;;;;;;;;;5035527;28;19974;-63
2023/01/14 12:21:38;;;;;;;;;;;;;;;;;;5047883;28;20051;-62
2023/01/14 12:24:03;;;;;;;;;;;;;;;;;;5045453;28;19920;-62
2023/01/14 12:26:28;;;;;;;;;;;;;;;;;;5042976;28;19916;-62
2023/01/14 12:28:56;;;;;;;;;;;;;;;;;;5047301;28;20411;-63
2023/01/14 12:31:21;;;;;;;;;;;;;;;;;;5047243;28;19921;-63
2023/01/14 12:33:46;;;;;;;;;;;;;;;;;;5035390;28;19913;-63
2023/01/14 12:36:16;;;;;;;;;;;;;;;;;;5057099;28;19970;-63
2023/01/14 12:46:53;;;;;;;;;;;;;;;;;;5056930;28;19959;-63
2023/01/14 12:49:18;;;;;;;;;;;;;;;;;;5073261;28;19974;-63
2023/01/14 12:51:44;;;;;;;;;;;;;;;;;;5051739;28;19924;-63
2023/01/14 12:54:09;;;;;;;;;;;;;;;;;;5066765;28;19935;-63
2023/01/14 12:56:34;;;;;;;;;;;;;;;;;;5044123;28;20383;-62
2023/01/14 12:58:59;;;;;;;;;;;;;;;;;;5043920;28;19916;-63
2023/01/14 13:01:24;;;;;;;;;;;;;;;;;;5033036;28;19916;-63
2023/01/14 13:03:49;;;;;;;;;;;;;;;;;;5067214;28;20011;-62
2023/01/14 13:06:14;;;;;;;;;;;;;;;;;;5064735;28;19917;-64
2023/01/14 13:08:40;;;;;;;;;;;;;;;;;;5056711;28;19913;-64
2023/01/14 13:11:05;;;;;;;;;;;;;;;;;;5031669;28;20008;-63
2023/01/14 13:13:30;;;;;;;;;;;;;;;;;;5054687;28;19963;-63
2023/01/14 13:15:55;;;;;;;;;;;;;;;;;;5041016;28;20324;-63
2023/01/14 13:18:21;;;;;;;;;;;;;;;;;;5051031;28;19913;-63
2023/01/14 13:20:46;;;;;;;;;;;;;;;;;;5050682;28;19927;-63
2023/01/14 13:23:14;;;;;;;;;;;;;;;;;;5047686;28;19920;-63
2023/01/14 13:25:40;;;;;;;;;;;;;;;;;;5051958;28;19939;-63
2023/01/14 13:28:05;;;;;;;;;;;;;;;;;;5058035;28;19917;-63
2023/01/14 13:30:31;;;;;;;;;;;;;;;;;;5050964;28;19947;-63
2023/01/14 13:32:56;;;;;;;;;;;;;;;;;;5056268;28;19916;-63
2023/01/14 13:35:21;;;;;;;;;;;;;;;;;;5063546;28;19921;-63
2023/01/14 13:37:46;;;;;;;;;;;;;;;;;;5055286;28;20269;-63
2023/01/14 13:40:11;;;;;;;;;;;;;;;;;;5071910;28;20360;-63
2023/01/14 13:42:38;;;;;;;;;;;;;;;;;;5072230;28;20297;-63
2023/01/14 13:45:03;;;;;;;;;;;;;;;;;;5072018;28;19919;-63
2023/01/14 13:47:29;;;;;;;;;;;;;;;;;;5072002;28;20271;-63
2023/01/14 13:49:54;;;;;;;;;;;;;;;;;;5071439;28;19920;-63
2023/01/14 13:52:21;;;;;;;;;;;;;;;;;;5069816;28;19913;-63
2023/01/14 13:54:46;;;;;;;;;;;;;;;;;;5070249;28;19917;-63
2023/01/14 13:57:11;;;;;;;;;;;;;;;;;;5072180;28;19913;-63
2023/01/14 13:59:36;;;;;;;;;;;;;;;;;;5059743;28;19962;-63
2023/01/14 14:02:01;;;;;;;;;;;;;;;;;;5066205;28;19925;-63
2023/01/14 14:04:26;;;;;;;;;;;;;;;;;;5069176;28;19927;-63
2023/01/14 14:06:52;;;;;;;;;;;;;;;;;;5076931;28;19987;-62
2023/01/14 14:09:17;;;;;;;;;;;;;;;;;;5078416;28;19909;-63
2023/01/14 14:11:42;;;;;;;;;;;;;;;;;;5071197;28;19912;-63
2023/01/14 14:14:08;;;;;;;;;;;;;;;;;;5071190;28;20413;-63
2023/01/14 14:16:33;;;;;;;;;;;;;;;;;;5072104;28;20365;-63
2023/01/14 14:18:58;;;;;;;;;;;;;;;;;;5070338;28;20015;-63
2023/01/14 14:21:23;;;;;;;;;;;;;;;;;;5069909;28;19932;-63
2023/01/14 14:23:49;;;;;;;;;;;;;;;;;;5084930;28;19935;-63
2023/01/14 14:26:14;;;;;;;;;;;;;;;;;;5062118;28;20021;-63
2023/01/14 14:28:40;;;;;;;;;;;;;;;;;;5077611;28;19920;-63
2023/01/14 14:31:08;;;;;;;;;;;;;;;;;;5070414;28;19934;-63
2023/01/14 14:33:33;;;;;;;;;;;;;;;;;;5073965;28;19966;-63
2023/01/14 14:35:58;;;;;;;;;;;;;;;;;;5071914;28;19952;-64
2023/01/14 14:38:23;;;;;;;;;;;;;;;;;;5084184;28;19944;-63
2023/01/14 14:40:48;;;;;;;;;;;;;;;;;;5067208;28;19920;-63
2023/01/14 14:43:14;;;;;;;;;;;;;;;;;;5071482;28;20392;-63
2023/01/14 14:45:39;;;;;;;;;;;;;;;;;;5070694;28;19909;-63
2023/01/14 14:48:04;;;;;;;;;;;;;;;;;;5050170;28;19917;-62
2023/01/14 14:50:29;;;;;;;;;;;;;;;;;;5070233;28;19913;-62
2023/01/14 14:52:54;;;;;;;;;;;;;;;;;;5069479;28;19939;-62
2023/01/14 14:55:20;;;;;;;;;;;;;;;;;;5070382;28;19912;-62
2023/01/14 14:57:45;;;;;;;;;;;;;;;;;;5080067;28;20014;-63
2023/01/14 15:00:10;;;;;;;;;;;;;;;;;;5080143;28;19954;-63
2023/01/14 15:02:35;;;;;;;;;;;;;;;;;;5059651;28;19962;-63
2023/01/14 15:05:00;;;;;;;;;;;;;;;;;;5080016;28;20284;-63
2023/01/14 15:07:25;;;;;;;;;;;;;;;;;;5055869;28;19918;-63
2023/01/14 15:09:50;;;;;;;;;;;;;;;;;;5084691;28;19908;-63
2023/01/14 15:12:19;;;;;;;;;;;;;;;;;;5066084;28;19912;-63
2023/01/14 15:14:44;;;;;;;;;;;;;;;;;;5077044;28;19916;-63
2023/01/14 15:17:09;;;;;;;;;;;;;;;;;;5060752;28;19920;-63
2023/01/14 15:19:34;;;;;;;;;;;;;;;;;;5088957;28;20010;-63
2023/01/14 15:22:03;;;;;;;;;;;;;;;;;;5077591;28;20360;-63
2023/01/14 15:24:28;;;;;;;;;;;;;;;;;;5079064;28;20287;-63
2023/01/14 15:26:53;;;;;;;;;;;;;;;;;;5057427;28;19924;-63
2023/01/14 15:29:18;;;;;;;;;;;;;;;;;;5080197;28;19908;-63
2023/01/14 15:31:43;;;;;;;;;;;;;;;;;;5075436;28;19917;-63
2023/01/14 15:34:08;;;;;;;;;;;;;;;;;;5075709;28;19997;-64
2023/01/14 15:36:33;;;;;;;;;;;;;;;;;;5082449;28;20184;-64
2023/01/14 15:38:59;;;;;;;;;;;;;;;;;;5074116;28;19917;-64
2023/01/14 15:41:24;;;;;;;;;;;;;;;;;;5083022;28;19973;-64
2023/01/14 15:43:49;;;;;;;;;;;;;;;;;;5084732;28;20317;-64
2023/01/14 15:46:15;;;;;;;;;;;;;;;;;;5075295;28;20391;-62
2023/01/14 15:48:40;;;;;;;;;;;;;;;;;;5091414;28;19962;-63
2023/01/14 15:51:05;;;;;;;;;;;;;;;;;;5073704;28;19908;-63
2023/01/14 15:53:30;;;;;;;;;;;;;;;;;;5056993;28;19913;-63
2023/01/14 15:55:55;;;;;;;;;;;;;;;;;;5072923;28;19928;-63
2023/01/14 15:58:21;;;;;;;;;;;;;;;;;;5074311;28;20360;-63
2023/01/14 16:00:46;;;;;;;;;;;;;;;;;;5075123;28;19917;-63
2023/01/14 16:03:11;;;;;;;;;;;;;;;;;;5056922;28;19912;-63
2023/01/14 16:05:36;;;;;;;;;;;;;;;;;;5067535;28;19962;-63
2023/01/14 16:08:01;;;;;;;;;;;;;;;;;;5069500;28;20015;-63
2023/01/14 16:10:26;;;;;;;;;;;;;;;;;;5077336;28;19939;-63
2023/01/14 16:12:53;;;;;;;;;;;;;;;;;;5072705;28;19935;-63
2023/01/14 16:15:18;;;;;;;;;;;;;;;;;;5071044;28;20004;-64
2023/01/14 16:17:43;;;;;;;;;;;;;;;;;;5062285;28;20020;-63
2023/01/14 16:20:09;;;;;;;;;;;;;;;;;;5075459;28;19912;-63
2023/01/14 16:22:34;;;;;;;;;;;;;;;;;;5073886;28;19962;-63
2023/01/14 16:24:59;;;;;;;;;;;;;;;;;;5073937;28;20274;-64
2023/01/14 16:27:24;;;;;;;;;;;;;;;;;;5069570;28;20007;-64
2023/01/14 16:29:49;;;;;;;;;;;;;;;;;;5070332;28;19912;-64
2023/01/14 16:32:14;;;;;;;;;;;;;;;;;;5073242;28;19919;-64
2023/01/14 16:34:40;;;;;;;;;;;;;;;;;;5073542;28;19918;-64
2023/01/14 16:37:05;;;;;;;;;;;;;;;;;;5071840;28;20023;-64
2023/01/14 16:39:31;;;;;;;;;;;;;;;;;;5071516;28;20377;-64
2023/01/14 16:41:56;;;;;;;;;;;;;;;;;;5081181;28;21926;-64
2023/01/14 16:44:21;;;;;;;;;;;;;;;;;;5072967;28;19912;-63
2023/01/14 16:46:46;;;;;;;;;;;;;;;;;;5074619;28;19934;-64
2023/01/14 16:49:11;;;;;;;;;;;;;;;;;;5078291;28;19912;-63
2023/01/14 16:51:37;;;;;;;;;;;;;;;;;;5065124;28;20047;-63
2023/01/14 16:54:02;;;;;;;;;;;;;;;;;;5050519;28;20007;-63
2023/01/14 16:56:27;;;;;;;;;;;;;;;;;;5061894;28;19917;-63
2023/01/14 16:58:55;;;;;;;;;;;;;;;;;;5072324;28;19919;-63
2023/01/14 17:01:22;;;;;;;;;;;;;;;;;;5074858;28;19916;-63
2023/01/14 17:03:47;;;;;;;;;;;;;;;;;;5078415;28;19923;-63
2023/01/14 17:06:12;;;;;;;;;;;;;;;;;;5047947;28;20562;-63
2023/01/14 17:08:37;;;;;;;;;;;;;;;;;;5071686;28;20399;-64
2023/01/14 17:11:02;;;;;;;;;;;;;;;;;;5072338;28;19912;-63
2023/01/14 17:13:28;;;;;;;;;;;;;;;;;;5077295;28;19916;-63
2023/01/14 17:15:53;;;;;;;;;;;;;;;;;;5074931;28;19935;-63